AAL2869 KDCA-KCLT
Flight info
| Callsign | AAL2869 |
|---|---|
| Flight time | 0h 54m |
| Altitude | 36000 |
| Route | SCRAM6 GLANC AIROW CHSLY6 |
| Aircraft | A319/M-SDE3FGHIRWY/LB1 |
Departure
| Time | 2026-05-05 14:38 |
|---|---|
| Airport | Ronald Reagan Washington National Airport (KDCA) |
Arrival
| Time | 2026-05-05 15:33 |
|---|---|
| Airport | Charlotte Douglas International Airport (KCLT) |
| Time | Latitude | Longitude | Altitude | Speed | Heading |
|---|---|---|---|---|---|
| 2026-05-05 14:13 | 38.85562 | -77.04221 | 24 ft | 0 kts | 338° |
| 2026-05-05 14:29 | 38.85561 | -77.04220 | 24 ft | 1 kts | 338° |
| 2026-05-05 14:30 | 38.85548 | -77.04213 | 26 ft | 3 kts | 338° |
| 2026-05-05 14:30 | 38.85530 | -77.04204 | 25 ft | 3 kts | 339° |
| 2026-05-05 14:30 | 38.85514 | -77.04200 | 27 ft | 3 kts | 46° |
| 2026-05-05 14:30 | 38.85506 | -77.04216 | 24 ft | 1 kts | 72° |
| 2026-05-05 14:31 | 38.85508 | -77.04208 | 24 ft | 3 kts | 72° |
| 2026-05-05 14:31 | 38.85514 | -77.04183 | 25 ft | 3 kts | 72° |
| 2026-05-05 14:31 | 38.85520 | -77.04158 | 26 ft | 3 kts | 72° |
| 2026-05-05 14:31 | 38.85526 | -77.04134 | 24 ft | 3 kts | 72° |
| 2026-05-05 14:32 | 38.85533 | -77.04109 | 26 ft | 3 kts | 72° |
| 2026-05-05 14:32 | 38.85536 | -77.04096 | 24 ft | 0 kts | 72° |
| 2026-05-05 14:35 | 38.85545 | -77.04061 | 25 ft | 8 kts | 70° |
| 2026-05-05 14:35 | 38.85591 | -77.04037 | 24 ft | 8 kts | 352° |
| 2026-05-05 14:35 | 38.85647 | -77.04042 | 24 ft | 8 kts | 356° |
| 2026-05-05 14:35 | 38.85704 | -77.04049 | 27 ft | 8 kts | 352° |
| 2026-05-05 14:36 | 38.85760 | -77.04054 | 30 ft | 8 kts | 356° |
| 2026-05-05 14:36 | 38.85822 | -77.04060 | 28 ft | 11 kts | 356° |
| 2026-05-05 14:36 | 38.85907 | -77.04057 | 25 ft | 14 kts | 21° |
| 2026-05-05 14:36 | 38.85970 | -77.03969 | 24 ft | 14 kts | 26° |
| 2026-05-05 14:37 | 38.86051 | -77.03938 | 24 ft | 12 kts | 15° |
| 2026-05-05 14:37 | 38.86084 | -77.03877 | 23 ft | 10 kts | 135° |
| 2026-05-05 14:37 | 38.86061 | -77.03867 | 23 ft | 0 kts | 172° |
| 2026-05-05 14:37 | 38.86021 | -77.03861 | 24 ft | 30 kts | 174° |
| 2026-05-05 14:38 | 38.85551 | -77.03818 | 27 ft | 102 kts | 175° |
| 2026-05-05 14:38 | 38.84651 | -77.03724 | 114 ft | 148 kts | 176° |
| 2026-05-05 14:38 | 38.83632 | -77.03647 | 796 ft | 146 kts | 178° |
| 2026-05-05 14:38 | 38.82603 | -77.03619 | 1406 ft | 150 kts | 184° |
| 2026-05-05 14:39 | 38.81542 | -77.03616 | 1944 ft | 159 kts | 185° |
| 2026-05-05 14:39 | 38.80361 | -77.03609 | 2300 ft | 180 kts | 184° |
| 2026-05-05 14:39 | 38.79030 | -77.03587 | 2593 ft | 206 kts | 184° |
| 2026-05-05 14:39 | 38.77504 | -77.03567 | 2974 ft | 232 kts | 183° |
| 2026-05-05 14:40 | 38.75828 | -77.03710 | 3409 ft | 253 kts | 201° |
| 2026-05-05 14:40 | 38.74441 | -77.05060 | 4154 ft | 254 kts | 239° |
| 2026-05-05 14:40 | 38.73918 | -77.07211 | 5099 ft | 257 kts | 264° |
| 2026-05-05 14:40 | 38.73900 | -77.09499 | 6135 ft | 259 kts | 270° |
| 2026-05-05 14:41 | 38.73996 | -77.11771 | 7118 ft | 259 kts | 268° |
| 2026-05-05 14:41 | 38.73810 | -77.14074 | 8102 ft | 256 kts | 252° |
| 2026-05-05 14:41 | 38.73214 | -77.16213 | 9128 ft | 255 kts | 245° |
| 2026-05-05 14:41 | 38.72508 | -77.18289 | 10128 ft | 255 kts | 243° |
| 2026-05-05 14:42 | 38.71724 | -77.20421 | 10579 ft | 276 kts | 243° |
| 2026-05-05 14:42 | 38.70826 | -77.22623 | 11131 ft | 288 kts | 237° |
| 2026-05-05 14:42 | 38.69638 | -77.24721 | 11873 ft | 294 kts | 234° |
| 2026-05-05 14:42 | 38.68427 | -77.26854 | 12656 ft | 299 kts | 234° |
| 2026-05-05 14:43 | 38.67204 | -77.29031 | 13474 ft | 303 kts | 235° |
| 2026-05-05 14:43 | 38.65962 | -77.31243 | 14198 ft | 308 kts | 235° |
| 2026-05-05 14:43 | 38.64706 | -77.33484 | 14898 ft | 312 kts | 236° |
| 2026-05-05 14:43 | 38.63436 | -77.35754 | 15622 ft | 316 kts | 236° |
| 2026-05-05 14:44 | 38.62154 | -77.38049 | 16314 ft | 319 kts | 236° |
| 2026-05-05 14:44 | 38.61295 | -77.39588 | 16769 ft | 322 kts | 237° |
| 2026-05-05 14:44 | 38.59985 | -77.41927 | 17469 ft | 325 kts | 237° |
| 2026-05-05 14:44 | 38.58640 | -77.44324 | 18157 ft | 329 kts | 237° |
| 2026-05-05 14:45 | 38.57313 | -77.46686 | 18753 ft | 333 kts | 237° |
| 2026-05-05 14:45 | 38.55933 | -77.49132 | 19330 ft | 338 kts | 237° |
| 2026-05-05 14:45 | 38.54546 | -77.51583 | 19901 ft | 342 kts | 237° |
| 2026-05-05 14:45 | 38.53146 | -77.54060 | 20469 ft | 346 kts | 237° |
| 2026-05-05 14:46 | 38.51726 | -77.56571 | 21020 ft | 351 kts | 237° |
| 2026-05-05 14:46 | 38.50291 | -77.59108 | 21576 ft | 355 kts | 237° |
| 2026-05-05 14:46 | 38.48836 | -77.61680 | 22125 ft | 360 kts | 237° |
| 2026-05-05 14:46 | 38.47361 | -77.64289 | 22665 ft | 364 kts | 237° |
| 2026-05-05 14:47 | 38.45869 | -77.66923 | 23206 ft | 369 kts | 237° |
| 2026-05-05 14:47 | 38.44215 | -77.69466 | 23698 ft | 375 kts | 232° |
| 2026-05-05 14:47 | 38.42493 | -77.71986 | 24153 ft | 379 kts | 232° |
| 2026-05-05 14:47 | 38.40753 | -77.74534 | 24595 ft | 383 kts | 232° |
| 2026-05-05 14:48 | 38.38991 | -77.77113 | 25030 ft | 387 kts | 232° |
| 2026-05-05 14:48 | 38.37215 | -77.79711 | 25459 ft | 391 kts | 232° |
| 2026-05-05 14:48 | 38.35439 | -77.82352 | 25883 ft | 394 kts | 233° |
| 2026-05-05 14:48 | 38.33680 | -77.85045 | 26294 ft | 397 kts | 234° |
| 2026-05-05 14:49 | 38.31920 | -77.87780 | 26707 ft | 401 kts | 234° |
| 2026-05-05 14:49 | 38.30147 | -77.90542 | 27115 ft | 405 kts | 234° |
| 2026-05-05 14:49 | 38.28353 | -77.93319 | 27519 ft | 408 kts | 234° |
| 2026-05-05 14:49 | 38.26536 | -77.96118 | 27922 ft | 411 kts | 234° |
| 2026-05-05 14:50 | 38.24702 | -77.98931 | 28331 ft | 415 kts | 234° |
| 2026-05-05 14:50 | 38.22856 | -78.01757 | 28731 ft | 418 kts | 234° |
| 2026-05-05 14:50 | 38.20987 | -78.04612 | 29129 ft | 421 kts | 234° |
| 2026-05-05 14:50 | 38.19103 | -78.07483 | 29519 ft | 424 kts | 234° |
| 2026-05-05 14:51 | 38.17207 | -78.10373 | 29906 ft | 427 kts | 234° |
| 2026-05-05 14:51 | 38.15297 | -78.13282 | 30260 ft | 430 kts | 235° |
| 2026-05-05 14:51 | 38.13377 | -78.16202 | 30585 ft | 432 kts | 235° |
| 2026-05-05 14:51 | 38.11442 | -78.19143 | 30926 ft | 435 kts | 235° |
| 2026-05-05 14:52 | 38.09499 | -78.22094 | 31253 ft | 437 kts | 235° |
| 2026-05-05 14:52 | 38.07569 | -78.25023 | 31568 ft | 439 kts | 235° |
| 2026-05-05 14:52 | 38.05589 | -78.28049 | 31886 ft | 441 kts | 236° |
| 2026-05-05 14:52 | 38.03671 | -78.31029 | 32178 ft | 443 kts | 236° |
| 2026-05-05 14:53 | 38.01735 | -78.34065 | 32595 ft | 442 kts | 236° |
| 2026-05-05 14:53 | 37.99787 | -78.37128 | 33061 ft | 440 kts | 236° |
| 2026-05-05 14:53 | 37.97892 | -78.40102 | 33500 ft | 439 kts | 236° |
| 2026-05-05 14:53 | 37.95969 | -78.43105 | 33943 ft | 438 kts | 236° |
| 2026-05-05 14:54 | 37.94046 | -78.46093 | 34335 ft | 437 kts | 236° |
| 2026-05-05 14:54 | 37.92123 | -78.49074 | 34719 ft | 436 kts | 236° |
| 2026-05-05 14:54 | 37.90204 | -78.52046 | 35097 ft | 435 kts | 236° |
| 2026-05-05 14:54 | 37.88291 | -78.55003 | 35464 ft | 434 kts | 236° |
| 2026-05-05 14:55 | 37.86380 | -78.57955 | 35824 ft | 432 kts | 236° |
| 2026-05-05 14:55 | 37.84475 | -78.60896 | 35981 ft | 431 kts | 236° |
| 2026-05-05 14:55 | 37.80735 | -78.66662 | 36008 ft | 420 kts | 236° |
| 2026-05-05 14:56 | 37.77045 | -78.72360 | 36011 ft | 418 kts | 236° |
| 2026-05-05 14:56 | 37.73352 | -78.78035 | 36013 ft | 418 kts | 234° |
| 2026-05-05 14:57 | 37.68912 | -78.82904 | 36020 ft | 427 kts | 222° |
| 2026-05-05 14:57 | 37.64132 | -78.87370 | 36015 ft | 427 kts | 222° |
| 2026-05-05 14:58 | 37.59354 | -78.91824 | 36014 ft | 427 kts | 222° |
| 2026-05-05 14:58 | 37.54574 | -78.96284 | 36025 ft | 427 kts | 223° |
| 2026-05-05 14:59 | 37.49801 | -79.00733 | 36034 ft | 427 kts | 223° |
| 2026-05-05 14:59 | 37.45020 | -79.05170 | 36040 ft | 427 kts | 223° |
| 2026-05-05 15:00 | 37.41013 | -79.08820 | 36045 ft | 427 kts | 221° |
| 2026-05-05 15:00 | 37.35318 | -79.13763 | 36046 ft | 428 kts | 221° |
| 2026-05-05 15:01 | 37.30403 | -79.17994 | 36043 ft | 428 kts | 221° |
| 2026-05-05 15:01 | 37.25505 | -79.22248 | 36037 ft | 428 kts | 221° |
| 2026-05-05 15:02 | 37.20648 | -79.26556 | 36022 ft | 427 kts | 223° |
| 2026-05-05 15:02 | 37.15833 | -79.30937 | 36025 ft | 427 kts | 223° |
| 2026-05-05 15:03 | 37.11020 | -79.35311 | 36030 ft | 428 kts | 223° |
| 2026-05-05 15:03 | 37.06182 | -79.39669 | 36027 ft | 429 kts | 223° |
| 2026-05-05 15:04 | 37.01330 | -79.44011 | 36023 ft | 429 kts | 222° |
| 2026-05-05 15:04 | 36.96399 | -79.48246 | 36029 ft | 431 kts | 221° |
| 2026-05-05 15:05 | 36.88865 | -79.54513 | 35711 ft | 437 kts | 221° |
| 2026-05-05 15:05 | 36.86345 | -79.56622 | 35426 ft | 434 kts | 221° |
| 2026-05-05 15:06 | 36.83850 | -79.58714 | 34916 ft | 431 kts | 221° |
| 2026-05-05 15:06 | 36.81370 | -79.60801 | 34418 ft | 429 kts | 221° |
| 2026-05-05 15:06 | 36.78900 | -79.62880 | 33888 ft | 427 kts | 220° |
| 2026-05-05 15:06 | 36.76448 | -79.64941 | 33376 ft | 424 kts | 220° |
| 2026-05-05 15:07 | 36.74008 | -79.66989 | 32892 ft | 421 kts | 220° |
| 2026-05-05 15:07 | 36.71586 | -79.69018 | 32403 ft | 418 kts | 220° |
| 2026-05-05 15:07 | 36.69180 | -79.71028 | 31919 ft | 415 kts | 219° |
| 2026-05-05 15:07 | 36.66795 | -79.73021 | 31437 ft | 412 kts | 219° |
| 2026-05-05 15:08 | 36.64418 | -79.75007 | 30958 ft | 409 kts | 219° |
| 2026-05-05 15:08 | 36.62064 | -79.76972 | 30486 ft | 406 kts | 218° |
| 2026-05-05 15:08 | 36.59719 | -79.78928 | 29999 ft | 404 kts | 218° |
| 2026-05-05 15:08 | 36.57396 | -79.80863 | 29524 ft | 400 kts | 218° |
| 2026-05-05 15:09 | 36.55094 | -79.82775 | 29089 ft | 395 kts | 218° |
| 2026-05-05 15:09 | 36.52820 | -79.84667 | 28652 ft | 392 kts | 218° |
| 2026-05-05 15:09 | 36.50568 | -79.86546 | 28221 ft | 388 kts | 218° |
| 2026-05-05 15:09 | 36.48334 | -79.88412 | 27777 ft | 386 kts | 218° |
| 2026-05-05 15:10 | 36.46109 | -79.90266 | 27341 ft | 384 kts | 218° |
| 2026-05-05 15:10 | 36.43899 | -79.92104 | 26885 ft | 382 kts | 218° |
| 2026-05-05 15:10 | 36.41697 | -79.93929 | 26435 ft | 380 kts | 218° |
| 2026-05-05 15:10 | 36.39493 | -79.95749 | 25957 ft | 379 kts | 218° |
| 2026-05-05 15:11 | 36.37299 | -79.97562 | 25484 ft | 378 kts | 218° |
| 2026-05-05 15:11 | 36.35115 | -79.99368 | 24989 ft | 378 kts | 217° |
| 2026-05-05 15:11 | 36.32931 | -80.01178 | 24490 ft | 378 kts | 217° |
| 2026-05-05 15:11 | 36.30742 | -80.02987 | 23987 ft | 377 kts | 217° |
| 2026-05-05 15:12 | 36.28558 | -80.04789 | 23447 ft | 378 kts | 217° |
| 2026-05-05 15:12 | 36.26371 | -80.06588 | 22924 ft | 376 kts | 217° |
| 2026-05-05 15:12 | 36.24202 | -80.08372 | 22430 ft | 374 kts | 217° |
| 2026-05-05 15:12 | 36.22043 | -80.10151 | 21946 ft | 371 kts | 217° |
| 2026-05-05 15:13 | 36.19925 | -80.11895 | 21475 ft | 369 kts | 217° |
| 2026-05-05 15:13 | 36.17790 | -80.13649 | 20999 ft | 367 kts | 217° |
| 2026-05-05 15:13 | 36.15678 | -80.15382 | 20659 ft | 361 kts | 216° |
| 2026-05-05 15:13 | 36.13624 | -80.17068 | 20539 ft | 348 kts | 217° |
| 2026-05-05 15:14 | 36.11639 | -80.18697 | 20399 ft | 337 kts | 217° |
| 2026-05-05 15:14 | 36.09704 | -80.20285 | 20112 ft | 331 kts | 217° |
| 2026-05-05 15:14 | 36.07796 | -80.21846 | 19750 ft | 328 kts | 216° |
| 2026-05-05 15:14 | 36.05906 | -80.23396 | 19393 ft | 325 kts | 216° |
| 2026-05-05 15:15 | 36.04030 | -80.24935 | 19041 ft | 322 kts | 216° |
| 2026-05-05 15:15 | 36.02166 | -80.26463 | 18696 ft | 320 kts | 216° |
| 2026-05-05 15:15 | 36.00323 | -80.27976 | 18353 ft | 317 kts | 216° |
| 2026-05-05 15:15 | 35.98495 | -80.29472 | 17965 ft | 315 kts | 216° |
| 2026-05-05 15:16 | 35.96676 | -80.30957 | 17581 ft | 312 kts | 216° |
| 2026-05-05 15:16 | 35.94866 | -80.32434 | 17199 ft | 310 kts | 216° |
| 2026-05-05 15:16 | 35.93072 | -80.33897 | 16836 ft | 308 kts | 216° |
| 2026-05-05 15:16 | 35.91287 | -80.35352 | 16481 ft | 307 kts | 215° |
| 2026-05-05 15:17 | 35.89521 | -80.36792 | 16051 ft | 304 kts | 215° |
| 2026-05-05 15:17 | 35.87754 | -80.38232 | 15604 ft | 302 kts | 215° |
| 2026-05-05 15:17 | 35.86009 | -80.39654 | 15153 ft | 300 kts | 215° |
| 2026-05-05 15:17 | 35.84271 | -80.41071 | 14735 ft | 298 kts | 215° |
| 2026-05-05 15:18 | 35.82557 | -80.42501 | 14374 ft | 297 kts | 217° |
| 2026-05-05 15:18 | 35.80908 | -80.44022 | 14051 ft | 295 kts | 218° |
| 2026-05-05 15:18 | 35.79303 | -80.45584 | 13648 ft | 293 kts | 219° |
| 2026-05-05 15:18 | 35.77726 | -80.47147 | 13123 ft | 289 kts | 219° |
| 2026-05-05 15:19 | 35.76170 | -80.48687 | 12555 ft | 286 kts | 219° |
| 2026-05-05 15:19 | 35.74531 | -80.50042 | 12040 ft | 282 kts | 207° |
| 2026-05-05 15:19 | 35.72699 | -80.50876 | 11567 ft | 280 kts | 199° |
| 2026-05-05 15:19 | 35.70852 | -80.51586 | 11145 ft | 277 kts | 199° |
| 2026-05-05 15:20 | 35.69028 | -80.52287 | 10756 ft | 272 kts | 199° |
| 2026-05-05 15:20 | 35.67229 | -80.52979 | 10370 ft | 269 kts | 199° |
| 2026-05-05 15:20 | 35.65453 | -80.53665 | 9996 ft | 266 kts | 199° |
| 2026-05-05 15:20 | 35.63691 | -80.54344 | 9579 ft | 264 kts | 199° |
| 2026-05-05 15:21 | 35.61948 | -80.55015 | 9205 ft | 262 kts | 199° |
| 2026-05-05 15:21 | 35.60234 | -80.55675 | 9043 ft | 252 kts | 199° |
| 2026-05-05 15:21 | 35.58657 | -80.56485 | 8864 ft | 242 kts | 214° |
| 2026-05-05 15:21 | 35.57509 | -80.57949 | 8714 ft | 240 kts | 237° |
| 2026-05-05 15:22 | 35.56954 | -80.59886 | 8490 ft | 246 kts | 259° |
| 2026-05-05 15:22 | 35.56904 | -80.62003 | 8142 ft | 247 kts | 265° |
| 2026-05-05 15:22 | 35.56886 | -80.64116 | 7771 ft | 248 kts | 265° |
| 2026-05-05 15:22 | 35.56865 | -80.66234 | 7391 ft | 248 kts | 265° |
| 2026-05-05 15:23 | 35.56842 | -80.68354 | 7054 ft | 247 kts | 265° |
| 2026-05-05 15:23 | 35.56816 | -80.70465 | 6657 ft | 248 kts | 264° |
| 2026-05-05 15:23 | 35.56790 | -80.72586 | 6272 ft | 250 kts | 265° |
| 2026-05-05 15:23 | 35.56770 | -80.74002 | 6051 ft | 248 kts | 265° |
| 2026-05-05 15:24 | 35.56529 | -80.76020 | 5969 ft | 232 kts | 247° |
| 2026-05-05 15:24 | 35.55902 | -80.77789 | 5844 ft | 221 kts | 242° |
| 2026-05-05 15:24 | 35.55249 | -80.79460 | 5711 ft | 214 kts | 242° |
| 2026-05-05 15:24 | 35.54597 | -80.81092 | 5517 ft | 211 kts | 242° |
| 2026-05-05 15:25 | 35.53948 | -80.82708 | 5306 ft | 211 kts | 242° |
| 2026-05-05 15:25 | 35.53295 | -80.84312 | 5060 ft | 208 kts | 242° |
| 2026-05-05 15:25 | 35.52640 | -80.85908 | 4884 ft | 210 kts | 242° |
| 2026-05-05 15:25 | 35.51976 | -80.87514 | 4691 ft | 211 kts | 242° |
| 2026-05-05 15:26 | 35.51313 | -80.89111 | 4460 ft | 209 kts | 242° |
| 2026-05-05 15:26 | 35.50658 | -80.90700 | 4164 ft | 208 kts | 242° |
| 2026-05-05 15:26 | 35.50002 | -80.92269 | 3988 ft | 206 kts | 242° |
| 2026-05-05 15:26 | 35.49348 | -80.93833 | 3994 ft | 207 kts | 242° |
| 2026-05-05 15:27 | 35.48671 | -80.95398 | 3995 ft | 208 kts | 237° |
| 2026-05-05 15:27 | 35.47647 | -80.96637 | 4009 ft | 211 kts | 214° |
| 2026-05-05 15:27 | 35.46283 | -80.97256 | 3999 ft | 213 kts | 190° |
| 2026-05-05 15:27 | 35.44791 | -80.97227 | 4009 ft | 216 kts | 180° |
| 2026-05-05 15:28 | 35.43293 | -80.97092 | 4010 ft | 215 kts | 180° |
| 2026-05-05 15:28 | 35.41831 | -80.96963 | 4000 ft | 206 kts | 179° |
| 2026-05-05 15:28 | 35.40441 | -80.96842 | 4024 ft | 191 kts | 180° |
| 2026-05-05 15:28 | 35.39139 | -80.96730 | 3907 ft | 184 kts | 180° |
| 2026-05-05 15:29 | 35.37859 | -80.96621 | 3719 ft | 186 kts | 180° |
| 2026-05-05 15:29 | 35.36569 | -80.96510 | 3502 ft | 186 kts | 180° |
| 2026-05-05 15:29 | 35.35251 | -80.96397 | 3216 ft | 190 kts | 179° |
| 2026-05-05 15:29 | 35.33945 | -80.96283 | 2971 ft | 186 kts | 178° |
| 2026-05-05 15:30 | 35.32658 | -80.96171 | 2737 ft | 182 kts | 179° |
| 2026-05-05 15:30 | 35.31416 | -80.96063 | 2504 ft | 175 kts | 179° |
| 2026-05-05 15:30 | 35.30262 | -80.95963 | 2281 ft | 155 kts | 180° |
| 2026-05-05 15:30 | 35.29244 | -80.95875 | 2099 ft | 143 kts | 179° |
| 2026-05-05 15:31 | 35.28295 | -80.95794 | 1922 ft | 133 kts | 180° |
| 2026-05-05 15:31 | 35.27388 | -80.95714 | 1849 ft | 132 kts | 180° |
| 2026-05-05 15:31 | 35.26485 | -80.95628 | 1620 ft | 129 kts | 179° |
| 2026-05-05 15:31 | 35.25590 | -80.95558 | 1379 ft | 128 kts | 181° |
| 2026-05-05 15:32 | 35.24701 | -80.95473 | 1164 ft | 126 kts | 181° |
| 2026-05-05 15:32 | 35.23823 | -80.95404 | 982 ft | 129 kts | 183° |
| 2026-05-05 15:32 | 35.22927 | -80.95331 | 832 ft | 129 kts | 180° |
| 2026-05-05 15:32 | 35.22081 | -80.95267 | 742 ft | 107 kts | 177° |
| 2026-05-05 15:33 | 35.21510 | -80.95214 | 738 ft | 57 kts | 175° |
| 2026-05-05 15:33 | 35.21227 | -80.95101 | 735 ft | 29 kts | 142° |
| 2026-05-05 15:33 | 35.21186 | -80.95005 | 732 ft | 12 kts | 44° |
| 2026-05-05 15:33 | 35.21265 | -80.94989 | 733 ft | 12 kts | 357° |
| 2026-05-05 15:34 | 35.21329 | -80.94996 | 731 ft | 1 kts | 355° |
| 2026-05-05 15:34 | 35.21340 | -80.94997 | 733 ft | 2 kts | 354° |
| 2026-05-05 15:34 | 35.21361 | -80.94999 | 733 ft | 5 kts | 354° |
| 2026-05-05 15:34 | 35.21410 | -80.95006 | 733 ft | 9 kts | 354° |
| 2026-05-05 15:35 | 35.21490 | -80.95012 | 732 ft | 13 kts | 356° |
| 2026-05-05 15:35 | 35.21591 | -80.95022 | 734 ft | 14 kts | 356° |
| 2026-05-05 15:35 | 35.21672 | -80.95027 | 734 ft | 7 kts | 357° |
| 2026-05-05 15:35 | 35.21732 | -80.95013 | 733 ft | 11 kts | 55° |
| 2026-05-05 15:36 | 35.21791 | -80.94950 | 733 ft | 14 kts | 358° |
| 2026-05-05 15:36 | 35.21889 | -80.94961 | 733 ft | 15 kts | 355° |
| 2026-05-05 15:36 | 35.21991 | -80.94972 | 733 ft | 15 kts | 355° |
| 2026-05-05 15:36 | 35.22097 | -80.94968 | 733 ft | 15 kts | 21° |
| 2026-05-05 15:37 | 35.22127 | -80.94858 | 733 ft | 15 kts | 84° |
| 2026-05-05 15:37 | 35.22127 | -80.94742 | 732 ft | 11 kts | 133° |
| 2026-05-05 15:37 | 35.22081 | -80.94730 | 732 ft | 3 kts | 176° |
| 2026-05-05 15:37 | 35.22069 | -80.94729 | 732 ft | 0 kts | 176° |